createdAt,value
2018-05-02T00:02:02.735Z,101099.28
2018-05-02T00:04:28.513Z,101095.84
2018-05-02T00:06:54.271Z,101094.23
2018-05-02T00:09:20.065Z,101093.98
2018-05-02T00:11:45.817Z,101090.65
2018-05-02T00:14:11.604Z,101090.34
2018-05-02T00:16:37.379Z,101096.62
2018-05-02T00:19:03.147Z,101087.58
2018-05-02T00:21:28.902Z,101094.39
2018-05-02T00:23:54.663Z,101092.29
2018-05-02T00:26:20.593Z,101082.97
2018-05-02T00:28:46.363Z,101082.05
2018-05-02T00:31:12.115Z,101080.27
2018-05-02T00:33:37.883Z,101073.45
2018-05-02T00:36:03.643Z,101083.44
2018-05-02T00:38:29.405Z,101083.39
2018-05-02T00:40:55.172Z,101085.06
2018-05-02T00:43:20.939Z,101072.50
2018-05-02T00:45:46.733Z,101070.81
2018-05-02T00:48:12.494Z,101074.25
2018-05-02T00:50:38.267Z,101067.33
2018-05-02T00:53:04.023Z,101059.80
2018-05-02T00:55:29.779Z,101057.09
2018-05-02T00:57:55.633Z,101070.02
2018-05-02T01:00:21.415Z,101068.27
2018-05-02T01:02:47.169Z,101065.22
2018-05-02T01:05:12.996Z,101070.33
2018-05-02T01:07:38.756Z,101064.16
2018-05-02T01:10:04.525Z,101066.20
2018-05-02T01:12:30.267Z,101069.70
2018-05-02T01:14:56.081Z,101070.13
2018-05-02T01:17:21.900Z,101067.87
2018-05-02T01:19:47.646Z,101071.94
2018-05-02T01:22:13.412Z,101073.39
2018-05-02T01:24:39.184Z,101070.63
2018-05-02T01:27:04.958Z,101071.24
2018-05-02T01:29:30.727Z,101064.42
2018-05-02T01:31:56.502Z,101068.95
2018-05-02T01:34:22.267Z,101073.09
2018-05-02T01:36:48.043Z,101069.91
2018-05-02T01:39:13.784Z,101074.11
2018-05-02T01:41:39.563Z,101074.34
2018-05-02T01:44:05.324Z,101071.89
2018-05-02T01:46:31.097Z,101074.69
2018-05-02T01:49:09.163Z,101074.56
2018-05-02T01:51:34.967Z,101077.47
2018-05-02T01:54:00.705Z,101085.39
2018-05-02T01:56:26.479Z,101087.72
2018-05-02T01:58:52.291Z,101088.75
2018-05-02T02:01:18.058Z,101091.42
2018-05-02T02:03:43.816Z,101097.73
2018-05-02T02:06:09.595Z,101095.63
2018-05-02T02:08:35.345Z,101099.72
2018-05-02T02:11:01.128Z,101100.28
2018-05-02T02:13:41.831Z,101109.22
2018-05-02T02:16:07.631Z,101103.47
2018-05-02T02:18:33.385Z,101103.66
2018-05-02T02:20:59.153Z,101106.41
2018-05-02T02:23:24.921Z,101106.97
2018-05-02T02:25:50.865Z,101104.70
2018-05-02T02:28:16.631Z,101115.00
2018-05-02T02:30:42.419Z,101108.19
2018-05-02T02:33:08.189Z,101112.73
2018-05-02T02:35:48.895Z,101111.16
2018-05-02T02:38:14.652Z,101105.14
2018-05-02T02:40:40.420Z,101109.57
2018-05-02T02:43:06.204Z,101117.94
2018-05-02T02:45:32.011Z,101117.06
2018-05-02T02:47:57.772Z,101114.92
2018-05-02T02:50:23.523Z,101113.66
2018-05-02T02:52:49.612Z,101116.40
2018-05-02T02:55:15.431Z,101109.45
2018-05-02T02:57:41.488Z,101114.97
2018-05-02T03:00:07.271Z,101119.92
2018-05-02T03:02:33.051Z,101119.60
2018-05-02T03:04:58.799Z,101117.53
2018-05-02T03:07:24.622Z,101108.50
2018-05-02T03:09:50.367Z,101113.80
2018-05-02T03:12:16.143Z,101107.45
2018-05-02T03:14:41.883Z,101109.70
2018-05-02T03:17:07.667Z,101119.35
2018-05-02T03:19:33.419Z,101117.28
2018-05-02T03:21:59.211Z,101110.95
2018-05-02T03:24:25.012Z,101114.89
2018-05-02T03:26:50.831Z,101117.59
2018-05-02T03:29:16.590Z,101121.34
2018-05-02T03:31:42.380Z,101115.63
2018-05-02T03:34:08.127Z,101116.47
2018-05-02T03:36:33.915Z,101126.13
2018-05-02T03:38:59.665Z,101124.82
2018-05-02T03:41:25.443Z,101120.22
2018-05-02T03:43:51.199Z,101129.00
2018-05-02T03:46:17.005Z,101122.43
2018-05-02T03:48:42.775Z,101125.00
2018-05-02T03:51:08.545Z,101124.22
2018-05-02T03:53:34.287Z,101124.75
2018-05-02T03:56:00.048Z,101125.23
2018-05-02T03:58:25.908Z,101121.69
2018-05-02T04:01:04.114Z,101123.55
2018-05-02T04:03:42.116Z,101121.41
2018-05-02T04:06:20.119Z,101123.97
2018-05-02T04:08:45.915Z,101126.47
2018-05-02T04:11:11.660Z,101131.06
2018-05-02T04:13:37.740Z,101132.33
2018-05-02T04:16:03.514Z,101131.67
2018-05-02T04:18:29.296Z,101132.58
2018-05-02T04:20:55.104Z,101137.67
2018-05-02T04:23:20.884Z,101136.56
2018-05-02T04:25:46.633Z,101137.19
2018-05-02T04:28:12.408Z,101142.39
2018-05-02T04:30:38.175Z,101141.55
2018-05-02T04:33:03.971Z,101147.59
2018-05-02T04:35:29.713Z,101149.35
2018-05-02T04:37:55.489Z,101150.02
2018-05-02T04:40:21.242Z,101153.50
2018-05-02T04:42:47.015Z,101141.20
2018-05-02T04:45:12.768Z,101149.70
2018-05-02T04:47:38.539Z,101149.16
2018-05-02T04:50:04.271Z,101155.19
2018-05-02T04:52:30.181Z,101162.56
2018-05-02T04:54:55.924Z,101159.91
2018-05-02T04:57:21.735Z,101165.28
2018-05-02T04:59:47.487Z,101173.31
2018-05-02T05:02:13.256Z,101163.83
2018-05-02T05:04:39.099Z,101179.02
2018-05-02T05:07:04.848Z,101171.45
2018-05-02T05:09:30.611Z,101177.85
2018-05-02T05:11:56.384Z,101176.91
2018-05-02T05:14:22.168Z,101177.22
2018-05-02T05:16:47.959Z,101178.11
2018-05-02T05:19:13.739Z,101180.98
2018-05-02T05:21:39.539Z,101182.11
2018-05-02T05:24:05.319Z,101176.94
2018-05-02T05:26:31.103Z,101185.37
2018-05-02T05:28:56.920Z,101182.69
2018-05-02T05:31:22.673Z,101184.37
2018-05-02T05:33:48.484Z,101174.20
2018-05-02T05:36:14.247Z,101174.84
2018-05-02T05:38:40.024Z,101178.92
2018-05-02T05:41:05.796Z,101175.03
2018-05-02T05:43:31.839Z,101172.97
2018-05-02T05:45:57.569Z,101173.97
2018-05-02T05:48:23.335Z,101181.00
2018-05-02T05:50:49.080Z,101186.67
2018-05-02T05:53:14.847Z,101185.26
2018-05-02T05:55:40.590Z,101185.20
2018-05-02T05:58:06.371Z,101182.23
2018-05-02T06:00:32.232Z,101187.88
2018-05-02T06:02:58.011Z,101191.77
2018-05-02T06:05:23.752Z,101184.52
2018-05-02T06:07:49.844Z,101192.48
2018-05-02T06:10:15.763Z,101185.89
2018-05-02T06:12:41.617Z,101190.39
2018-05-02T06:15:07.388Z,101186.52
2018-05-02T06:17:33.131Z,101188.23
2018-05-02T06:19:58.947Z,101189.17
2018-05-02T06:22:24.709Z,101188.25
2018-05-02T06:24:50.763Z,101192.27
2018-05-02T06:27:16.536Z,101189.20
2018-05-02T06:29:42.323Z,101186.39
2018-05-02T06:32:08.108Z,101191.79
2018-05-02T06:34:33.875Z,101190.95
2018-05-02T06:36:59.636Z,101186.42
2018-05-02T06:39:25.406Z,101178.88
2018-05-02T06:41:51.161Z,101174.84
2018-05-02T06:44:17.000Z,101181.38
2018-05-02T06:46:42.765Z,101183.03
2018-05-02T06:49:08.629Z,101187.38
2018-05-02T06:51:34.307Z,101176.39
2018-05-02T06:54:00.085Z,101184.91
2018-05-02T06:56:25.831Z,101180.88
2018-05-02T06:58:52.013Z,101181.11
2018-05-02T07:01:17.770Z,101173.00
2018-05-02T07:03:43.549Z,101182.20
2018-05-02T07:06:09.296Z,101183.03
2018-05-02T07:08:35.051Z,101179.36
2018-05-02T07:11:00.812Z,101177.59
2018-05-02T07:13:26.655Z,101177.49
2018-05-02T07:15:52.364Z,101178.12
2018-05-02T07:18:18.135Z,101176.64
2018-05-02T07:20:43.908Z,101176.03
2018-05-02T07:23:09.656Z,101182.96
2018-05-02T07:25:35.491Z,101181.42
2018-05-02T07:28:01.264Z,101183.12
2018-05-02T07:30:27.027Z,101181.17
2018-05-02T07:32:52.889Z,101175.95
2018-05-02T07:35:18.591Z,101179.77
2018-05-02T07:37:44.340Z,101176.39
2018-05-02T07:40:10.611Z,101175.83
2018-05-02T07:42:36.387Z,101172.47
2018-05-02T07:45:02.487Z,101175.20
2018-05-02T07:47:28.240Z,101173.54
2018-05-02T07:49:54.011Z,101177.11
2018-05-02T07:52:19.763Z,101176.77
2018-05-02T07:54:45.583Z,101176.56
2018-05-02T07:57:11.347Z,101181.23
2018-05-02T07:59:37.127Z,101169.51
2018-05-02T08:02:02.878Z,101168.22
2018-05-02T08:04:29.055Z,101171.95
2018-05-02T08:06:54.811Z,101167.16
2018-05-02T08:09:20.583Z,101163.69
2018-05-02T08:11:46.340Z,101163.45
2018-05-02T08:14:12.120Z,101163.61
2018-05-02T08:16:37.903Z,101162.19
2018-05-02T08:19:03.677Z,101169.16
2018-05-02T08:21:29.471Z,101166.85
2018-05-02T08:23:55.235Z,101165.17
2018-05-02T08:26:21.236Z,101170.20
2018-05-02T08:28:46.995Z,101165.65
2018-05-02T08:31:12.773Z,101169.37
2018-05-02T08:33:38.515Z,101163.08
2018-05-02T08:36:04.340Z,101159.55
2018-05-02T08:38:30.095Z,101157.08
2018-05-02T08:40:55.859Z,101146.13
2018-05-02T08:43:21.631Z,101148.22
2018-05-02T08:45:47.395Z,101148.75
2018-05-02T08:48:13.144Z,101145.45
2018-05-02T08:50:38.984Z,101143.14
2018-05-02T08:53:04.752Z,101148.73
2018-05-02T08:55:30.719Z,101143.11
2018-05-02T08:57:56.485Z,101141.51
2018-05-02T09:00:22.284Z,101148.08
2018-05-02T09:02:48.035Z,101147.06
2018-05-02T09:05:13.819Z,101150.84
2018-05-02T09:07:39.560Z,101136.76
2018-05-02T09:10:05.339Z,101133.45
2018-05-02T09:12:31.096Z,101135.06
2018-05-02T09:14:56.852Z,101133.14
2018-05-02T09:17:22.883Z,101128.81
2018-05-02T09:19:48.647Z,101129.75
2018-05-02T09:22:14.420Z,101126.80
2018-05-02T09:24:40.196Z,101118.10
2018-05-02T09:27:05.979Z,101127.05
2018-05-02T09:29:31.780Z,101115.61
2018-05-02T09:31:57.576Z,101114.64
2018-05-02T09:34:23.323Z,101109.97
2018-05-02T09:36:49.087Z,101112.41
2018-05-02T09:39:14.865Z,101103.27
2018-05-02T09:41:40.636Z,101100.77
2018-05-02T09:44:06.491Z,101092.53
2018-05-02T09:46:32.245Z,101101.95
2018-05-02T09:48:57.999Z,101084.58
2018-05-02T09:51:23.786Z,101085.00
2018-05-02T09:53:49.527Z,101074.64
2018-05-02T09:56:15.571Z,101075.31
2018-05-02T09:58:41.546Z,101069.05
2018-05-02T10:01:07.619Z,101069.35
2018-05-02T10:03:33.371Z,101074.55
2018-05-02T10:05:59.136Z,101062.48
2018-05-02T10:08:24.907Z,101056.03
2018-05-02T10:10:50.672Z,101058.05
2018-05-02T10:13:16.432Z,101061.73
2018-05-02T10:15:42.186Z,101057.54
2018-05-02T10:18:08.232Z,101063.73
2018-05-02T10:20:34.022Z,101056.98
2018-05-02T10:22:59.826Z,101054.55
2018-05-02T10:25:25.583Z,101054.79
2018-05-02T10:27:51.360Z,101055.64
2018-05-02T10:30:17.133Z,101043.94
2018-05-02T10:32:42.895Z,101053.73
2018-05-02T10:35:08.659Z,101055.81
2018-05-02T10:37:34.433Z,101041.23
2018-05-02T10:40:00.191Z,101042.46
2018-05-02T10:42:25.985Z,101052.96
2018-05-02T10:44:51.748Z,101052.70
2018-05-02T10:47:17.532Z,101052.09
2018-05-02T10:49:43.299Z,101044.78
2018-05-02T10:52:09.071Z,101049.21
2018-05-02T10:54:34.815Z,101042.81
2018-05-02T10:57:00.576Z,101041.75
2018-05-02T10:59:26.395Z,101042.39
2018-05-02T11:01:52.163Z,101040.19
2018-05-02T11:04:17.964Z,101038.00
2018-05-02T11:06:43.716Z,101038.87
2018-05-02T11:09:09.487Z,101032.53
2018-05-02T11:11:35.250Z,101021.27
2018-05-02T11:14:01.031Z,101011.91
2018-05-02T11:16:26.789Z,101022.98
2018-05-02T11:18:52.567Z,101014.50
2018-05-02T11:21:18.308Z,101010.63
2018-05-02T11:23:44.076Z,101005.45
2018-05-02T11:26:09.844Z,101007.41
2018-05-02T11:28:35.767Z,101008.14
2018-05-02T11:31:01.528Z,100995.89
2018-05-02T11:33:27.279Z,100990.88
2018-05-02T11:35:53.035Z,100988.84
2018-05-02T11:38:18.819Z,100994.01
2018-05-02T11:40:44.584Z,100999.23
2018-05-02T11:43:10.355Z,100993.87
2018-05-02T11:45:36.107Z,100988.01
2018-05-02T11:48:01.892Z,100984.95
2018-05-02T11:50:27.643Z,100983.89
2018-05-02T11:52:53.414Z,100987.39
2018-05-02T11:55:19.175Z,100991.44
2018-05-02T11:57:45.036Z,100984.93
2018-05-02T12:00:10.975Z,100981.58
2018-05-02T12:02:36.817Z,100984.23
2018-05-02T12:05:02.575Z,100980.58
2018-05-02T12:07:28.368Z,100980.69
2018-05-02T12:09:54.139Z,100978.00
2018-05-02T12:12:19.879Z,100974.94
2018-05-02T12:14:45.623Z,100974.88
2018-05-02T12:17:11.404Z,100970.39
2018-05-02T12:19:37.156Z,100971.23
2018-05-02T12:22:02.919Z,100972.05
2018-05-02T12:24:28.703Z,100975.55
2018-05-02T12:26:54.488Z,100982.83
2018-05-02T12:29:20.259Z,100975.92
2018-05-02T12:31:46.039Z,100975.20
2018-05-02T12:34:11.814Z,100964.56
2018-05-02T12:36:37.575Z,100956.30
2018-05-02T12:39:03.366Z,100961.73
2018-05-02T12:41:29.135Z,100950.27
2018-05-02T12:43:54.915Z,100954.83
2018-05-02T12:46:20.668Z,100954.49
2018-05-02T12:48:46.443Z,100943.50
2018-05-02T12:51:12.204Z,100945.61
2018-05-02T12:53:37.980Z,100944.45
2018-05-02T12:56:03.837Z,100929.91
2018-05-02T12:58:29.599Z,100921.25
2018-05-02T13:00:55.404Z,100921.61
2018-05-02T13:03:21.159Z,100918.45
2018-05-02T13:05:46.919Z,100918.71
2018-05-02T13:08:12.693Z,100920.20
2018-05-02T13:10:38.447Z,100907.52
2018-05-02T13:13:04.222Z,100906.82
2018-05-02T13:15:29.984Z,100908.95
2018-05-02T13:17:55.762Z,100896.24
2018-05-02T13:20:21.577Z,100887.64
2018-05-02T13:22:47.337Z,100891.27
2018-05-02T13:25:13.124Z,100879.69
2018-05-02T13:27:38.859Z,100888.09
2018-05-02T13:30:04.633Z,100880.66
2018-05-02T13:32:30.396Z,100875.30
2018-05-02T13:34:56.167Z,100880.56
2018-05-02T13:37:21.987Z,100879.07
2018-05-02T13:39:47.736Z,100886.02
2018-05-02T13:42:13.524Z,100874.75
2018-05-02T13:44:39.271Z,100871.08
2018-05-02T13:47:05.060Z,100864.05
2018-05-02T13:49:30.814Z,100866.22
2018-05-02T13:51:56.595Z,100863.14
2018-05-02T13:54:22.343Z,100864.39
2018-05-02T13:56:48.130Z,100854.33
2018-05-02T13:59:13.946Z,100851.50
2018-05-02T14:01:39.830Z,100856.78
2018-05-02T14:04:05.588Z,100853.66
2018-05-02T14:06:31.370Z,100848.06
2018-05-02T14:08:57.111Z,100838.48
2018-05-02T14:11:22.872Z,100852.00
2018-05-02T14:13:48.623Z,100839.48
2018-05-02T14:16:14.411Z,100839.66
2018-05-02T14:18:40.187Z,100827.92
2018-05-02T14:21:05.993Z,100832.84
2018-05-02T14:23:31.751Z,100819.24
2018-05-02T14:25:57.543Z,100823.98
2018-05-02T14:28:23.291Z,100817.20
2018-05-02T14:30:49.135Z,100813.16
2018-05-02T14:33:14.883Z,100813.48
2018-05-02T14:35:40.759Z,100799.31
2018-05-02T14:38:06.533Z,100807.06
2018-05-02T14:40:32.305Z,100791.67
2018-05-02T14:42:58.089Z,100801.97
2018-05-02T14:45:23.904Z,100803.47
2018-05-02T14:47:49.619Z,100801.25
2018-05-02T14:50:15.383Z,100804.63
2018-05-02T14:52:41.155Z,100801.94
2018-05-02T14:55:06.955Z,100809.97
2018-05-02T14:57:32.697Z,100801.81
2018-05-02T14:59:58.575Z,100811.55
2018-05-02T15:02:24.331Z,100805.39
2018-05-02T15:04:50.116Z,100804.19
2018-05-02T15:07:15.888Z,100805.64
2018-05-02T15:09:41.636Z,100817.68
2018-05-02T15:12:07.431Z,100802.89
2018-05-02T15:14:33.180Z,100802.51
2018-05-02T15:16:58.990Z,100800.59
2018-05-02T15:19:24.756Z,100799.16
2018-05-02T15:21:50.523Z,100794.25
2018-05-02T15:24:16.274Z,100794.91
2018-05-02T15:26:42.052Z,100792.38
2018-05-02T15:29:07.811Z,100790.29
2018-05-02T15:31:33.604Z,100790.05
2018-05-02T15:33:59.351Z,100794.25
2018-05-02T15:36:25.128Z,100796.82
2018-05-02T15:38:50.894Z,100795.16
2018-05-02T15:41:16.679Z,100796.03
2018-05-02T15:43:42.428Z,100796.75
2018-05-02T15:46:08.276Z,100787.81
2018-05-02T15:48:34.042Z,100793.56
2018-05-02T15:50:59.793Z,100788.75
2018-05-02T15:53:25.598Z,100780.81
2018-05-02T15:55:51.360Z,100781.45
2018-05-02T15:58:17.183Z,100787.60
2018-05-02T16:00:42.895Z,100782.28
2018-05-02T16:03:08.695Z,100789.22
2018-05-02T16:05:34.450Z,100786.13
2018-05-02T16:08:00.223Z,100788.75
2018-05-02T16:10:25.993Z,100789.06
2018-05-02T16:12:51.758Z,100789.98
2018-05-02T16:15:17.535Z,100779.50
2018-05-02T16:17:43.318Z,100772.63
2018-05-02T16:20:09.075Z,100767.80
2018-05-02T16:22:34.851Z,100761.84
2018-05-02T16:25:00.611Z,100768.39
2018-05-02T16:27:26.599Z,100767.36
2018-05-02T16:29:52.378Z,100764.20
2018-05-02T16:32:18.156Z,100770.39
2018-05-02T16:34:43.907Z,100760.72
2018-05-02T16:37:09.687Z,100757.66
2018-05-02T16:39:35.448Z,100767.12
2018-05-02T16:42:01.247Z,100766.77
2018-05-02T16:44:27.010Z,100769.94
2018-05-02T16:46:52.772Z,100769.70
2018-05-02T16:49:18.747Z,100779.63
2018-05-02T16:51:44.504Z,100776.48
2018-05-02T16:54:10.348Z,100764.12
2018-05-02T16:56:36.120Z,100758.68
2018-05-02T16:59:02.015Z,100761.97
2018-05-02T17:01:27.828Z,100753.86
2018-05-02T17:03:53.588Z,100755.75
2018-05-02T17:06:19.359Z,100759.54
2018-05-02T17:08:45.124Z,100769.96
2018-05-02T17:11:10.962Z,100772.39
2018-05-02T17:13:36.643Z,100771.27
2018-05-02T17:16:02.404Z,100770.71
2018-05-02T17:18:28.188Z,100767.30
2018-05-02T17:20:53.922Z,100768.08
2018-05-02T17:23:19.687Z,100765.15
2018-05-02T17:25:45.457Z,100769.82
2018-05-02T17:28:11.255Z,100765.89
2018-05-02T17:30:37.057Z,100770.31
2018-05-02T17:33:02.849Z,100764.14
2018-05-02T17:35:28.620Z,100765.63
2018-05-02T17:37:54.409Z,100775.30
2018-05-02T17:40:20.235Z,100777.69
2018-05-02T17:42:45.987Z,100767.84
2018-05-02T17:45:11.764Z,100770.50
2018-05-02T17:47:37.512Z,100771.05
2018-05-02T17:50:04.141Z,100776.25
2018-05-02T17:52:29.903Z,100782.23
2018-05-02T17:54:55.682Z,100779.91
2018-05-02T17:57:21.435Z,100777.45
2018-05-02T17:59:47.208Z,100772.84
2018-05-02T18:02:12.993Z,100774.44
2018-05-02T18:04:38.755Z,100776.53
2018-05-02T18:07:04.511Z,100778.17
2018-05-02T18:09:30.295Z,100779.70
2018-05-02T18:11:56.048Z,100789.32
2018-05-02T18:14:21.812Z,100794.96
2018-05-02T18:16:47.783Z,100791.48
2018-05-02T18:19:13.537Z,100795.54
2018-05-02T18:21:39.361Z,100790.62
2018-05-02T18:24:05.104Z,100794.70
2018-05-02T18:26:30.903Z,100784.85
2018-05-02T18:28:56.639Z,100796.66
2018-05-02T18:31:22.421Z,100795.63
2018-05-02T18:33:48.169Z,100796.97
2018-05-02T18:36:13.939Z,100805.61
2018-05-02T18:38:39.750Z,100805.70
2018-05-02T18:41:05.504Z,100804.81
2018-05-02T18:43:31.273Z,100807.23
2018-05-02T18:45:57.049Z,100800.66
2018-05-02T18:48:22.824Z,100805.22
2018-05-02T18:50:48.604Z,100812.91
2018-05-02T18:53:14.422Z,100810.69
2018-05-02T18:55:40.139Z,100804.00
2018-05-02T18:58:06.172Z,100804.97
2018-05-02T19:00:32.003Z,100804.89
2018-05-02T19:02:57.739Z,100808.25
2018-05-02T19:05:23.507Z,100806.70
2018-05-02T19:07:49.283Z,100809.25
2018-05-02T19:10:15.135Z,100811.21
2018-05-02T19:12:40.847Z,100808.89
2018-05-02T19:15:06.634Z,100811.34
2018-05-02T19:17:32.404Z,100804.25
2018-05-02T19:20:04.204Z,100806.48
2018-05-02T19:22:29.959Z,100807.20
2018-05-02T19:25:01.929Z,100810.72
2018-05-02T19:27:27.713Z,100806.77
2018-05-02T19:29:53.524Z,100809.86
2018-05-02T19:32:25.635Z,100818.92
2018-05-02T19:34:51.408Z,100825.59
2018-05-02T19:37:17.199Z,100825.66
2018-05-02T19:39:49.111Z,100823.92
2018-05-02T19:42:21.181Z,100830.09
2018-05-02T19:44:46.965Z,100823.80
2018-05-02T19:47:12.763Z,100818.52
2018-05-02T19:49:38.511Z,100818.55
2018-05-02T19:52:10.429Z,100811.85
2018-05-02T19:54:36.271Z,100811.56
2018-05-02T19:57:02.086Z,100811.69
2018-05-02T19:59:28.096Z,100820.75
2018-05-02T20:04:59.630Z,100828.83
2018-05-02T20:07:31.747Z,100825.90
2018-05-02T20:10:03.660Z,100824.08
2018-05-02T20:12:35.639Z,100824.80
2018-05-02T20:15:01.720Z,100815.28
2018-05-02T20:17:27.483Z,100809.99
2018-05-02T20:19:53.503Z,100807.66
2018-05-02T20:22:19.323Z,100811.84
2018-05-02T20:24:45.087Z,100816.11
2018-05-02T20:27:10.881Z,100812.62
2018-05-02T20:29:36.663Z,100815.48
2018-05-02T20:32:02.456Z,100815.72
2018-05-02T20:34:28.223Z,100817.56
2018-05-02T20:36:54.017Z,100810.86
2018-05-02T20:39:19.779Z,100810.59
2018-05-02T20:41:45.578Z,100811.79
2018-05-02T20:44:11.402Z,100810.59
2018-05-02T20:46:37.125Z,100808.58
2018-05-02T20:49:02.884Z,100804.67
2018-05-02T20:51:28.695Z,100801.47
2018-05-02T20:53:54.476Z,100802.93
2018-05-02T20:56:20.291Z,100797.26
2018-05-02T20:58:46.060Z,100794.73
2018-05-02T21:01:11.880Z,100798.97
2018-05-02T21:03:37.655Z,100794.39
2018-05-02T21:06:03.443Z,100790.31
2018-05-02T21:08:29.196Z,100793.56
2018-05-02T21:10:54.996Z,100794.33
2018-05-02T21:13:20.761Z,100792.50
2018-05-02T21:15:46.702Z,100792.69
2018-05-02T21:18:12.495Z,100794.45
2018-05-02T21:20:38.259Z,100786.37
2018-05-02T21:23:04.043Z,100786.66
2018-05-02T21:25:29.806Z,100787.40
2018-05-02T21:27:55.593Z,100788.01
2018-05-02T21:30:21.372Z,100787.69
2018-05-02T21:32:47.151Z,100793.84
2018-05-02T21:35:12.910Z,100787.91
2018-05-02T21:37:38.696Z,100785.50
2018-05-02T21:40:04.452Z,100786.63
2018-05-02T21:42:30.255Z,100782.90
2018-05-02T21:44:56.001Z,100791.20
2018-05-02T21:47:21.791Z,100790.59
2018-05-02T21:49:47.536Z,100787.28
2018-05-02T21:52:13.323Z,100789.81
2018-05-02T21:54:39.092Z,100781.80
2018-05-02T21:57:04.876Z,100784.77
2018-05-02T21:59:30.826Z,100784.98
2018-05-02T22:01:56.571Z,100788.28
2018-05-02T22:04:22.315Z,100788.14
2018-05-02T22:06:48.047Z,100782.21
2018-05-02T22:09:13.779Z,100784.52
2018-05-02T22:11:39.546Z,100786.66
2018-05-02T22:14:05.300Z,100784.59
2018-05-02T22:16:31.206Z,100777.89
2018-05-02T22:18:56.970Z,100783.43
2018-05-02T22:21:22.710Z,100783.42
2018-05-02T22:23:48.471Z,100775.42
2018-05-02T22:26:14.287Z,100778.66
2018-05-02T22:28:40.235Z,100774.93
2018-05-02T22:31:05.964Z,100771.36
2018-05-02T22:33:31.736Z,100774.06
2018-05-02T22:35:57.468Z,100774.08
2018-05-02T22:38:23.242Z,100769.80
2018-05-02T22:40:49.791Z,100773.75
2018-05-02T22:43:15.547Z,100767.82
2018-05-02T22:45:41.363Z,100774.12
2018-05-02T22:48:07.171Z,100774.61
2018-05-02T22:50:32.927Z,100771.51
2018-05-02T22:52:58.704Z,100773.36
2018-05-02T22:55:24.447Z,100778.83
2018-05-02T22:57:50.183Z,100773.73
2018-05-02T23:00:15.963Z,100773.11
2018-05-02T23:02:41.726Z,100766.13
2018-05-02T23:05:07.458Z,100757.89
2018-05-02T23:07:33.194Z,100753.95
2018-05-02T23:09:58.997Z,100753.69
2018-05-02T23:12:24.755Z,100745.55
2018-05-02T23:14:50.699Z,100747.67
2018-05-02T23:17:16.439Z,100753.02
2018-05-02T23:19:42.178Z,100756.17
2018-05-02T23:22:07.926Z,100748.87
2018-05-02T23:24:33.679Z,100748.25
2018-05-02T23:26:59.430Z,100743.27
2018-05-02T23:29:25.161Z,100748.26
2018-05-02T23:31:50.925Z,100743.01
2018-05-02T23:34:16.668Z,100744.74
2018-05-02T23:36:42.451Z,100740.92
2018-05-02T23:39:08.241Z,100734.73
2018-05-02T23:41:33.972Z,100734.73
2018-05-02T23:43:59.743Z,100735.33
2018-05-02T23:46:25.475Z,100728.17
2018-05-02T23:48:51.222Z,100725.82
2018-05-02T23:51:16.966Z,100730.03
2018-05-02T23:53:42.875Z,100732.03
2018-05-02T23:56:08.615Z,100732.09
2018-05-02T23:58:34.367Z,100732.45
